Latest Weather Observations for Learmonth

IDW60801

Issued at 3:33 pm WST Tuesday 17 October 2017 (issued every 30 minutes, with the page automatically refreshed every 10 minutes)

About weather observations | Map of weather stations | Latest weather observations for WA | Other Formats
Station Details ID: 005007 Name: LEARMONTH AIRPORT Lat: -22.24 Lon: 114.10 Height: 5.0 m
Data from the previous 72 hours. | See also: Recent months at Learmonth
Date/Time
WST
Temp
°C
App
Temp
°C
Dew
Point
°C
Rel
Hum
%
Delta-T
°C
Wind Press
QNH
hPa
Press
MSL
hPa
Rain since
9am
mm
Dir  Spd
km/h
Gust
km/h
Spd
kts
Gust
kts
17/03:30pm 26.4 19.9 8.8 33 9.6 SSW 33 54 18 29 1011.4 - 0.0
17/03:26pm 26.6 20.2 8.6 32 9.8 SW 32 50 17 27 1011.4 - 0.0
17/03:00pm 26.9 19.9 8.4 31 10.0 SW 35 50 19 27 1011.4 1011.3 0.0
17/02:56pm 26.5 20.1 8.5 32 9.8 SW 32 50 17 27 1011.4 - 0.0
17/02:30pm 27.1 21.0 9.9 34 9.6 SW 32 48 17 26 1011.6 - 0.0
17/02:00pm 27.1 21.9 9.0 32 9.9 SW 26 43 14 23 1011.8 - 0.0
17/01:30pm 27.4 22.5 8.3 30 10.4 WSW 24 41 13 22 1012.0 - 0.0
17/01:00pm 27.9 22.8 7.7 28 10.9 WSW 24 39 13 21 1012.4 - 0.0
17/12:30pm 27.2 22.7 7.1 28 10.7 W 20 30 11 16 1012.6 - 0.0
17/12:00pm 27.0 22.1 6.9 28 10.6 S 22 32 12 17 1013.0 1012.9 0.0
17/11:30am 26.1 21.7 6.7 29 10.2 SW 19 30 10 16 1013.5 - 0.0
17/11:00am 25.7 21.5 7.3 31 9.7 SW 19 26 10 14 1014.0 - 0.0
17/10:30am 24.1 19.7 7.3 34 8.8 S 20 33 11 18 1014.3 - 0.0
17/10:00am 23.8 18.6 7.4 35 8.6 S 24 28 13 15 1014.4 - 0.0
17/09:30am 23.5 19.3 7.6 36 8.3 SSE 19 22 10 12 1014.6 - 0.0
17/09:00am 22.4 17.3 7.8 39 7.6 SSW 24 35 13 19 1014.6 1014.5 0.0
17/08:40am 21.8 16.1 8.3 42 7.1 S 28 46 15 25 1014.6 - 0.0
17/08:30am 21.9 15.9 8.8 43 6.9 SSE 30 39 16 21 1014.5 - 0.0
17/08:00am 20.8 15.2 8.8 46 6.3 SSE 28 33 15 18 1014.5 - 0.0
17/07:30am 19.7 15.7 9.0 50 5.6 S 20 26 11 14 1014.5 - 0.0
17/07:00am 17.7 13.8 8.6 55 4.7 S 19 24 10 13 1014.2 - 0.0
17/06:30am 16.7 13.4 8.1 57 4.4 S 15 20 8 11 1013.9 - 0.0
17/06:00am 15.3 12.4 8.1 62 3.6 SSW 13 19 7 10 1013.5 1013.4 0.0
17/05:30am 15.9 12.6 8.2 60 3.9 S 15 20 8 11 1013.1 - 0.0
17/05:00am 15.6 12.8 8.4 62 3.6 SSW 13 19 7 10 1013.0 - 0.0
17/04:30am 15.3 12.1 8.3 63 3.5 S 15 20 8 11 1012.6 - 0.0
17/04:00am 14.7 12.2 8.4 66 3.2 SSW 11 15 6 8 1012.6 - 0.0
17/03:30am 14.4 10.8 8.4 67 3.0 S 17 19 9 10 1012.4 - 0.0
17/03:00am 13.9 10.7 8.3 69 2.8 SSW 15 17 8 9 1012.3 1012.2 0.0
17/02:30am 13.8 10.6 8.4 70 2.7 SSW 15 17 8 9 1012.2 - 0.0
17/02:00am 14.2 10.7 8.6 69 2.8 SSW 17 19 9 10 1012.5 - 0.0
17/01:30am 14.8 11.4 9.0 68 3.0 SSW 17 20 9 11 1012.6 - 0.0
17/01:00am 15.1 11.7 9.2 68 3.0 SSW 17 19 9 10 1012.8 - 0.0
17/12:30am 15.3 11.7 9.7 69 2.9 SSW 19 20 10 11 1012.9 - 0.0
17/12:00am 15.6 12.5 10.2 70 2.8 SSW 17 20 9 11 1013.2 1013.1 0.0
 
Date/Time
WST
Temp
°C
App
Temp
°C
Dew
Point
°C
Rel
Hum
%
Delta-T
°C
Wind Press
QNH
hPa
Press
MSL
hPa
Rain since
9am
mm
Dir  Spd
km/h
Gust
km/h
Spd
kts
Gust
kts
16/11:30pm 16.0 13.0 10.7 71 2.8 SSW 17 19 9 10 1013.6 - 0.0
16/11:00pm 16.5 14.0 11.0 70 2.9 SSW 15 19 8 10 1013.8 - 0.0
16/10:30pm 16.6 14.5 11.1 70 3.0 SSW 13 17 7 9 1013.9 - 0.0
16/10:00pm 17.6 15.1 11.2 66 3.5 S 15 19 8 10 1013.7 - 0.0
16/09:30pm 18.5 15.8 11.8 65 3.7 S 17 20 9 11 1013.8 - 0.0
16/09:00pm 18.7 16.0 11.8 64 3.8 SSW 17 24 9 13 1013.7 1013.6 0.0
16/08:30pm 19.4 15.8 11.7 61 4.2 SSW 22 32 12 17 1013.5 - 0.0
16/08:00pm 20.2 16.3 12.2 60 4.5 SSW 24 32 13 17 1013.4 - 0.0
16/07:30pm 20.9 17.0 13.4 62 4.3 SSW 26 35 14 19 1013.0 - 0.0
16/07:00pm 21.1 16.7 13.0 60 4.6 SSW 28 39 15 21 1012.4 - 0.0
16/06:30pm 21.7 16.4 13.1 58 4.9 SSW 33 43 18 23 1011.9 - 0.0
16/06:00pm 22.6 17.1 13.7 57 5.2 SSW 35 44 19 24 1011.5 1011.4 0.0
16/05:30pm 23.0 17.8 14.6 59 5.0 SSW 35 46 19 25 1011.3 - 0.0
16/05:02pm 23.7 18.6 14.9 57 5.2 SSW 35 54 19 29 1010.8 - 0.0
16/05:00pm 24.1 18.9 14.5 55 5.7 SSW 35 41 19 22 1010.8 - 0.0
16/04:30pm 24.9 20.2 14.4 52 6.2 SW 32 43 17 23 1010.7 - 0.0
16/04:00pm 25.2 20.4 14.0 49 6.6 SW 32 39 17 21 1010.6 - 0.0
16/03:30pm 25.0 19.9 14.8 53 6.1 WSW 35 43 19 23 1010.8 - 0.0
16/03:00pm 26.3 21.4 14.4 48 7.1 SW 33 43 18 23 1010.7 1010.6 0.0
16/02:30pm 26.7 22.6 14.8 48 7.2 SW 30 43 16 23 1010.7 - 0.0
16/02:00pm 27.2 22.8 15.2 47 7.3 SW 32 39 17 21 1010.8 - 0.0
16/01:30pm 28.1 24.4 16.1 48 7.4 SSW 30 35 16 19 1011.1 - 0.0
16/01:00pm 26.5 22.3 15.8 51 6.5 SW 32 46 17 25 1011.3 - 0.0
16/12:30pm 27.0 24.3 15.7 50 6.9 SW 24 41 13 22 1011.7 - 0.0
16/12:00pm 26.3 22.4 16.5 54 6.1 WSW 32 39 17 21 1012.1 1012.0 0.0
16/11:30am 26.5 23.8 15.5 50 6.7 W 24 32 13 17 1012.3 - 0.0
16/11:00am 26.6 23.3 15.0 49 7.0 WSW 26 35 14 19 1012.5 - 0.0
16/10:30am 26.7 22.8 14.5 47 7.3 W 28 39 15 21 1012.6 - 0.0
16/10:00am 26.2 23.5 14.6 48 6.9 W 22 33 12 18 1012.7 - 0.0
16/09:30am 25.7 21.7 14.2 49 6.8 WSW 28 39 15 21 1012.9 - 0.0
16/09:00am 25.7 23.2 14.2 49 6.8 WSW 20 32 11 17 1012.7 1012.6 0.0
16/08:30am 24.5 22.2 14.6 54 5.9 WSW 20 28 11 15 1012.7 - 0.0
16/08:00am 24.2 21.9 14.6 55 5.7 W 20 26 11 14 1012.7 - 0.0
16/07:30am 23.0 20.2 14.3 58 5.1 W 22 28 12 15 1012.5 - 0.0
16/07:00am 21.9 23.5 15.0 65 4.1 CALM 0 6 0 3 1012.3 - 0.0
16/06:30am 19.0 19.2 14.1 73 2.8 S 6 7 3 4 1012.0 - 0.0
16/06:00am 16.8 16.6 12.9 78 2.2 SSE 6 7 3 4 1011.6 1011.5 0.0
16/05:30am 17.5 16.9 13.4 77 2.3 SSW 9 11 5 6 1011.3 - 0.0
16/05:00am 17.9 17.0 13.6 76 2.4 SSW 11 15 6 8 1011.1 - 0.0
16/04:30am 18.0 17.4 13.5 75 2.5 SW 9 9 5 5 1011.0 - 0.0
16/04:00am 17.9 17.1 13.0 73 2.7 SW 9 11 5 6 1010.8 - 0.0
16/03:30am 19.0 18.4 13.6 71 3.1 WSW 9 11 5 6 1010.9 - 0.0
16/03:00am 19.6 18.7 13.8 69 3.3 WSW 11 15 6 8 1010.7 1010.6 0.0
16/02:30am 20.6 19.0 14.0 66 3.8 W 15 20 8 11 1010.8 - 0.0
16/02:00am 21.5 18.4 14.4 64 4.2 W 24 32 13 17 1010.8 - 0.0
16/01:30am 21.3 19.8 14.2 64 4.1 WSW 15 20 8 11 1010.9 - 0.0
16/01:00am 20.1 19.2 13.8 67 3.6 SW 11 15 6 8 1011.0 - 0.0
16/12:30am 20.3 19.2 14.2 68 3.5 WSW 13 17 7 9 1011.3 - 0.0
16/12:00am 19.9 19.8 14.0 69 3.4 SW 7 9 4 5 1011.3 1011.2 0.0
 
Date/Time
WST
Temp
°C
App
Temp
°C
Dew
Point
°C
Rel
Hum
%
Delta-T
°C
Wind Press
QNH
hPa
Press
MSL
hPa
Rain since
9am
mm
Dir  Spd
km/h
Gust
km/h
Spd
kts
Gust
kts
15/11:30pm 20.0 18.8 13.9 68 3.5 SW 13 17 7 9 1011.3 - 0.0
15/11:00pm 20.4 18.5 14.3 68 3.5 WSW 17 22 9 12 1011.4 - 0.0
15/10:30pm 20.6 18.8 14.5 68 3.6 SW 17 22 9 12 1011.4 - 0.0
15/10:00pm 20.8 18.6 14.5 67 3.7 WSW 19 24 10 13 1011.7 - 0.0
15/09:30pm 21.0 18.3 14.6 67 3.7 WSW 22 28 12 15 1011.5 - 0.0
15/09:00pm 21.2 18.2 14.8 67 3.8 WSW 24 32 13 17 1011.2 1011.1 0.0
15/08:30pm 21.4 18.5 15.0 67 3.8 WSW 24 32 13 17 1011.1 - 0.0
15/08:00pm 21.6 18.7 15.2 67 3.8 WSW 24 32 13 17 1010.9 - 0.0
15/07:30pm 21.8 18.2 15.2 66 3.9 WSW 28 35 15 19 1010.7 - 0.0
15/07:00pm 22.2 19.2 14.8 63 4.4 WSW 24 32 13 17 1010.0 - 0.0
15/06:30pm 22.8 19.3 14.4 59 4.9 WSW 26 33 14 18 1009.7 - 0.0
15/06:00pm 23.6 19.8 14.6 57 5.3 WSW 28 37 15 20 1009.6 1009.5 0.0
15/05:30pm 25.1 21.3 14.6 52 6.3 WSW 28 35 15 19 1009.3 - 0.0
15/05:00pm 25.6 21.2 14.1 49 6.8 WSW 30 37 16 20 1009.1 - 0.0
15/04:30pm 26.8 22.8 14.2 46 7.5 W 28 33 15 18 1009.0 - 0.0
15/04:00pm 27.7 23.9 14.7 45 7.8 WSW 28 39 15 21 1009.0 - 0.0
15/03:30pm 27.9 23.7 13.4 40 8.6 W 28 35 15 19 1009.2 - 0.0
15/03:00pm 28.2 24.3 13.3 40 8.8 W 26 37 14 20 1009.2 1009.1 0.0
15/02:30pm 28.5 24.2 13.2 39 9.0 W 28 37 15 20 1009.3 - 0.0
15/02:00pm 29.8 25.7 12.7 35 10.1 W 26 35 14 19 1009.5 - 0.0
15/01:30pm 28.7 25.3 11.3 34 10.0 W 20 30 11 16 1009.5 - 0.0
15/01:00pm 29.8 26.8 12.7 35 10.1 WSW 20 33 11 18 1009.7 - 0.0
15/12:30pm 29.7 27.2 12.2 34 10.2 WNW 17 22 9 12 1010.0 - 0.0
15/12:00pm 27.0 27.3 16.0 51 6.8 NE 9 15 5 8 1010.4 1010.3 0.0
15/11:30am 28.8 28.7 15.0 43 8.4 NE 9 17 5 9 1010.7 - 0.0
15/11:00am 27.8 26.8 12.2 38 9.0 SW 9 19 5 10 1011.1 - 0.0
15/10:30am 26.5 24.6 11.8 40 8.4 W 13 20 7 11 1011.6 - 0.0
15/10:00am 25.1 23.7 12.3 45 7.3 NW 11 19 6 10 1011.8 - 0.0
15/09:30am 24.5 23.5 13.4 50 6.5 W 11 17 6 9 1011.9 - 0.0
15/09:00am 24.0 22.7 13.8 53 6.0 WSW 13 20 7 11 1011.9 1011.8 0.0
15/08:30am 23.0 21.6 14.6 59 5.0 SW 15 20 8 11 1012.0 - 0.0
15/08:00am 21.6 19.6 15.0 66 3.9 S 19 22 10 12 1012.1 - 0.0
15/07:30am 20.6 19.3 15.8 74 2.9 SSW 17 24 9 13 1012.0 - 0.0
15/07:00am 18.8 17.4 15.5 81 1.9 SSW 17 22 9 12 1011.8 - 0.0
15/06:30am 17.3 16.2 15.3 88 1.2 SW 15 17 8 9 1011.5 - 0.0
15/06:00am 16.3 15.0 14.7 90 0.9 SW 15 19 8 10 1011.3 1011.2 0.0
15/05:30am 16.1 15.1 14.6 91 0.9 SW 13 17 7 9 1011.3 - 0.0
15/05:00am 16.1 15.1 14.6 91 0.9 SW 13 17 7 9 1010.8 - 0.0
15/04:30am 16.2 15.2 14.6 90 0.9 SW 13 17 7 9 1010.5 - 0.0
15/04:00am 16.2 14.8 14.6 90 0.9 SW 15 17 8 9 1010.2 - 0.0
15/03:30am 16.5 15.2 14.7 89 1.0 SW 15 17 8 9 1010.1 - 0.0
15/03:00am 16.5 15.2 14.7 89 1.0 SW 15 17 8 9 1009.9 1009.8 0.0
15/02:30am 16.5 15.2 14.7 89 1.0 SW 15 19 8 10 1009.8 - 0.0
15/02:00am 16.3 14.9 14.5 89 1.0 SW 15 17 8 9 1010.0 - 0.0
15/01:30am 16.1 15.0 14.3 89 1.0 SSW 13 17 7 9 1010.4 - 0.0
15/01:00am 15.8 14.9 13.6 87 1.2 S 11 13 6 7 1010.5 - 0.0
15/12:30am 16.3 15.0 13.6 84 1.5 SSW 13 15 7 8 1010.7 - 0.0
15/12:00am 18.3 16.9 14.6 79 2.1 SW 15 19 8 10 1011.1 1011.0 0.0
 
Date/Time
WST
Temp
°C
App
Temp
°C
Dew
Point
°C
Rel
Hum
%
Delta-T
°C
Wind Press
QNH
hPa
Press
MSL
hPa
Rain since
9am
mm
Dir  Spd
km/h
Gust
km/h
Spd
kts
Gust
kts
14/11:30pm 18.6 17.3 14.7 78 2.3 SW 15 19 8 10 1011.3 - 0.0
14/11:00pm 19.2 17.2 14.9 76 2.5 SW 19 24 10 13 1011.3 - 0.0
14/10:30pm 19.4 17.2 14.9 75 2.6 SW 20 24 11 13 1011.4 - 0.0
14/10:00pm 19.6 17.4 14.8 74 2.8 SW 20 26 11 14 1011.6 - 0.0
14/09:30pm 19.9 17.8 14.7 72 3.0 SW 19 24 10 13 1011.8 - 0.0
14/09:00pm 20.2 17.9 14.6 70 3.3 SW 20 26 11 14 1011.7 1011.6 0.0
14/08:30pm 20.3 17.4 14.0 67 3.6 SW 22 32 12 17 1011.5 - 0.0
14/08:00pm 20.9 17.2 13.8 64 4.1 SW 26 33 14 18 1011.4 - 0.0
14/07:30pm 21.4 18.8 13.8 62 4.4 SW 20 30 11 16 1011.5 - 0.0
14/07:00pm 22.0 18.4 14.1 61 4.6 WSW 26 33 14 18 1011.1 - 0.0
14/06:30pm 22.7 18.6 13.7 56 5.2 WSW 28 35 15 19 1010.5 - 0.0
14/06:00pm 23.9 19.7 13.4 51 6.1 WSW 28 35 15 19 1010.3 1010.2 0.0
14/05:30pm 25.2 20.6 13.4 48 6.9 W 30 37 16 20 1010.1 - 0.0
14/05:00pm 26.2 21.7 12.6 43 7.9 W 28 37 15 20 1009.9 - 0.0
14/04:30pm 27.0 22.5 12.6 41 8.4 W 28 39 15 21 1009.8 - 0.0
14/04:00pm 27.8 23.3 11.4 36 9.4 W 26 33 14 18 1009.8 - 0.0

Other Formats:

Comma delimited format used in spreadsheet applications
http://www.bom.gov.au/fwo/IDW60801/IDW60801.94302.axf

JavaScript Object Notation format (JSON) in row-major order
http://www.bom.gov.au/fwo/IDW60801/IDW60801.94302.json